Wheeling Ohio County Airport
KHLG : now visible

Airfield :











YOU CAN JOIN US ON...

 
LOGIN :

Register | Disclaimer

   EN    FR    IT 

 









Legend :    VFR   Marginal VFR   IFR   Intensive IFR   Very Intensive IFR
Visi :
Ceiling :
>= 8 km
>= 3000ft
5 to 8 km
1000 to 3000 ft
1500m to 5 km
500 to 1000 ft
800 to 1500m
200 to 500 ft
< 800m
< 200 ft
Symbols :   Thunderstorms  Fog  Heavy snow  Heavy precipitations  Wind > 20 kt






- Airport Elevation : 1195 ft


KHLG - Wheeling Ohio County

CURRENT METAR :
  • 030853Z AUTO 17005KT 10SM CLR 18/16 A3002 RMK AO2 SLP163 T01830161 53000

EXPIRED METARs :
  • 030753Z AUTO 15003KT 10SM SCT034 BKN043 18/16 A3003 RMK AO2 SLP163 T01780161
  • 030653Z AUTO 13004KT 10SM CLR 18/16 A3002 RMK AO2 SLP161 T01780161

TAF KHLG
Valid from the 03 at 06:00 until the 04 at 06:00 UTC


030523Z 0306/0406 23004KT P6SM BKN050
FM031200 18003KT P6SM BKN060
FM040300 00000KT P6SM BKN090
FM040500 16002KT P6SM OVC050
KZOB FIR / North America



MET'MAP, your aeronautical weather chart ! - Copyright ORBIFLY December 2007 - Disclaimer

ORBIFLY MET'MAP TEAM :

Programming & Development : Alexandra Zaïnal
Concept & original design : Baudouin d'Aumeries
Assistance for programming : Marc-Olivier Méhu
Technical & hardware support : Manuel Goepfert

Contact : metmap@orbifly.com




SOURCES & CREDITS :

   NOAA       Earth
Advisory